sensor_id;sensor_type;location;lat;lon;timestamp;pressure;altitude;pressure_sealevel;temperature;humidity
43711;BME280;29309;42.682;23.372;2023-04-03T00:00:56;94603.69;;;7.91;64.59
43711;BME280;29309;42.682;23.372;2023-04-03T00:03:22;94603.69;;;7.91;65.02
43711;BME280;29309;42.682;23.372;2023-04-03T00:05:47;94602.03;;;7.86;64.56
43711;BME280;29309;42.682;23.372;2023-04-03T00:08:13;94607.78;;;7.76;65.15
43711;BME280;29309;42.682;23.372;2023-04-03T00:10:38;94592.63;;;7.77;65.42
43711;BME280;29309;42.682;23.372;2023-04-03T00:13:04;94590.56;;;7.78;65.29
43711;BME280;29309;42.682;23.372;2023-04-03T00:15:30;94579.50;;;7.78;65.27
43711;BME280;29309;42.682;23.372;2023-04-03T00:17:56;94585.75;;;7.78;65.54
43711;BME280;29309;42.682;23.372;2023-04-03T00:20:22;94578.91;;;7.79;65.61
43711;BME280;29309;42.682;23.372;2023-04-03T00:22:48;94575.22;;;7.75;65.18
43711;BME280;29309;42.682;23.372;2023-04-03T00:25:13;94579.50;;;7.78;65.22
43711;BME280;29309;42.682;23.372;2023-04-03T00:27:39;94580.53;;;7.71;65.54
43711;BME280;29309;42.682;23.372;2023-04-03T00:30:07;94578.22;;;7.65;65.47
43711;BME280;29309;42.682;23.372;2023-04-03T00:32:33;94593.84;;;7.61;65.99
43711;BME280;29309;42.682;23.372;2023-04-03T00:34:58;94582.09;;;7.60;65.98
43711;BME280;29309;42.682;23.372;2023-04-03T00:37:24;94589.78;;;7.62;66.24
43711;BME280;29309;42.682;23.372;2023-04-03T00:39:49;94588.44;;;7.63;66.25
43711;BME280;29309;42.682;23.372;2023-04-03T00:42:15;94590.88;;;7.57;66.07
43711;BME280;29309;42.682;23.372;2023-04-03T00:47:09;94585.34;;;7.57;66.07
43711;BME280;29309;42.682;23.372;2023-04-03T00:49:37;94592.22;;;7.56;66.06
43711;BME280;29309;42.682;23.372;2023-04-03T00:52:05;94583.53;;;7.48;66.25
43711;BME280;29309;42.682;23.372;2023-04-03T00:54:32;94587.00;;;7.48;66.18
43711;BME280;29309;42.682;23.372;2023-04-03T00:57:03;94583.53;;;7.48;66.87
43711;BME280;29309;42.682;23.372;2023-04-03T00:59:34;94589.16;;;7.50;66.63
43711;BME280;29309;42.682;23.372;2023-04-03T01:02:01;94589.66;;;7.46;66.63
43711;BME280;29309;42.682;23.372;2023-04-03T01:04:35;94595.19;;;7.46;66.54
43711;BME280;29309;42.682;23.372;2023-04-03T01:07:08;94601.53;;;7.49;67.21
43711;BME280;29309;42.682;23.372;2023-04-03T01:09:35;94593.56;;;7.41;67.28
43711;BME280;29309;42.682;23.372;2023-04-03T01:12:26;94591.38;;;7.39;67.28
43711;BME280;29309;42.682;23.372;2023-04-03T01:14:57;94600.91;;;7.36;67.46
43711;BME280;29309;42.682;23.372;2023-04-03T01:20:03;94591.81;;;7.34;68.13
43711;BME280;29309;42.682;23.372;2023-04-03T01:22:44;94590.06;;;7.27;68.14
43711;BME280;29309;42.682;23.372;2023-04-03T01:25:14;94588.41;;;7.22;68.11
43711;BME280;29309;42.682;23.372;2023-04-03T01:27:39;94588.41;;;7.22;68.75
43711;BME280;29309;42.682;23.372;2023-04-03T01:30:05;94597.28;;;7.20;69.98
43711;BME280;29309;42.682;23.372;2023-04-03T01:32:31;94594.22;;;7.14;69.77
43711;BME280;29309;42.682;23.372;2023-04-03T01:34:57;94600.34;;;7.13;69.49
43711;BME280;29309;42.682;23.372;2023-04-03T01:37:22;94599.44;;;7.08;69.16
43711;BME280;29309;42.682;23.372;2023-04-03T01:39:48;94596.31;;;7.02;69.28
43711;BME280;29309;42.682;23.372;2023-04-03T01:42:13;94589.28;;;6.99;69.87
43711;BME280;29309;42.682;23.372;2023-04-03T01:44:38;94587.53;;;6.92;69.74
43711;BME280;29309;42.682;23.372;2023-04-03T01:47:06;94594.78;;;6.99;70.13
43711;BME280;29309;42.682;23.372;2023-04-03T01:49:32;94600.31;;;6.99;69.94
43711;BME280;29309;42.682;23.372;2023-04-03T01:51:57;94600.22;;;6.97;71.45
43711;BME280;29309;42.682;23.372;2023-04-03T01:54:23;94598.78;;;6.96;70.52
43711;BME280;29309;42.682;23.372;2023-04-03T01:56:48;94600.88;;;6.84;70.64
43711;BME280;29309;42.682;23.372;2023-04-03T01:59:14;94607.38;;;6.77;70.68
43711;BME280;29309;42.682;23.372;2023-04-03T02:01:42;94608.88;;;6.66;71.19
43711;BME280;29309;42.682;23.372;2023-04-03T02:04:08;94607.25;;;6.61;70.83
43711;BME280;29309;42.682;23.372;2023-04-03T02:06:34;94610.59;;;6.60;71.46
43711;BME280;29309;42.682;23.372;2023-04-03T02:09:00;94609.66;;;6.55;71.40
43711;BME280;29309;42.682;23.372;2023-04-03T02:11:25;94607.78;;;6.46;71.46
43711;BME280;29309;42.682;23.372;2023-04-03T02:13:51;94602.06;;;6.42;71.39
43711;BME280;29309;42.682;23.372;2023-04-03T02:16:16;94606.97;;;6.43;71.81
43711;BME280;29309;42.682;23.372;2023-04-03T02:18:42;94606.25;;;6.43;71.74
43711;BME280;29309;42.682;23.372;2023-04-03T02:21:07;94612.97;;;6.40;72.25
43711;BME280;29309;42.682;23.372;2023-04-03T02:23:33;94615.50;;;6.36;72.31
43711;BME280;29309;42.682;23.372;2023-04-03T02:26:10;94596.81;;;6.34;72.25
43711;BME280;29309;42.682;23.372;2023-04-03T02:28:36;94591.28;;;6.34;72.07
43711;BME280;29309;42.682;23.372;2023-04-03T02:31:02;94585.44;;;6.28;72.18
43711;BME280;29309;42.682;23.372;2023-04-03T02:33:28;94574.28;;;6.26;72.26
43711;BME280;29309;42.682;23.372;2023-04-03T02:35:54;94581.84;;;6.26;72.31
43711;BME280;29309;42.682;23.372;2023-04-03T02:38:20;94582.47;;;6.24;72.58
43711;BME280;29309;42.682;23.372;2023-04-03T02:40:46;94582.69;;;6.28;72.41
43711;BME280;29309;42.682;23.372;2023-04-03T02:43:11;94585.31;;;6.26;72.74
43711;BME280;29309;42.682;23.372;2023-04-03T02:45:37;94585.72;;;6.21;72.52
43711;BME280;29309;42.682;23.372;2023-04-03T02:48:02;94584.66;;;6.14;72.89
43711;BME280;29309;42.682;23.372;2023-04-03T02:50:28;94588.50;;;6.09;73.16
43711;BME280;29309;42.682;23.372;2023-04-03T02:52:53;94582.66;;;6.03;73.40
43711;BME280;29309;42.682;23.372;2023-04-03T02:55:19;94580.50;;;6.02;73.48
43711;BME280;29309;42.682;23.372;2023-04-03T02:57:44;94576.91;;;5.99;73.52
43711;BME280;29309;42.682;23.372;2023-04-03T03:00:10;94569.38;;;6.00;73.87
43711;BME280;29309;42.682;23.372;2023-04-03T03:02:35;94572.00;;;5.98;74.18
43711;BME280;29309;42.682;23.372;2023-04-03T03:05:01;94576.31;;;6.01;74.20
43711;BME280;29309;42.682;23.372;2023-04-03T03:07:26;94574.66;;;5.96;74.10
43711;BME280;29309;42.682;23.372;2023-04-03T03:09:52;94572.00;;;5.98;74.51
43711;BME280;29309;42.682;23.372;2023-04-03T03:12:17;94571.28;;;5.97;73.98
43711;BME280;29309;42.682;23.372;2023-04-03T03:14:47;94564.09;;;6.04;74.60
43711;BME280;29309;42.682;23.372;2023-04-03T03:17:12;94561.94;;;6.02;75.26
43711;BME280;29309;42.682;23.372;2023-04-03T03:19:38;94565.41;;;6.03;75.67
43711;BME280;29309;42.682;23.372;2023-04-03T03:22:04;94558.34;;;6.00;74.80
43711;BME280;29309;42.682;23.372;2023-04-03T03:24:29;94558.22;;;5.98;74.79
43711;BME280;29309;42.682;23.372;2023-04-03T03:26:55;94576.59;;;5.93;74.20
43711;BME280;29309;42.682;23.372;2023-04-03T03:29:20;94560.53;;;5.89;74.67
43711;BME280;29309;42.682;23.372;2023-04-03T03:31:46;94566.16;;;5.91;74.81
43711;BME280;29309;42.682;23.372;2023-04-03T03:34:11;94565.91;;;5.87;75.06
43711;BME280;29309;42.682;23.372;2023-04-03T03:36:37;94561.72;;;5.86;75.77
43711;BME280;29309;42.682;23.372;2023-04-03T03:39:02;94561.72;;;5.86;75.60
43711;BME280;29309;42.682;23.372;2023-04-03T03:41:28;94573.34;;;5.85;75.00
43711;BME280;29309;42.682;23.372;2023-04-03T03:43:53;94581.13;;;5.77;75.33
43711;BME280;29309;42.682;23.372;2023-04-03T03:46:19;94571.31;;;5.74;75.32
43711;BME280;29309;42.682;23.372;2023-04-03T03:48:45;94569.88;;;5.73;75.08
43711;BME280;29309;42.682;23.372;2023-04-03T03:51:10;94564.38;;;5.73;75.04
43711;BME280;29309;42.682;23.372;2023-04-03T03:53:36;94567.75;;;5.71;75.14
43711;BME280;29309;42.682;23.372;2023-04-03T03:56:01;94561.88;;;5.65;75.48
43711;BME280;29309;42.682;23.372;2023-04-03T03:58:27;94570.03;;;5.63;75.48
43711;BME280;29309;42.682;23.372;2023-04-03T04:00:52;94569.41;;;5.65;75.30
43711;BME280;29309;42.682;23.372;2023-04-03T04:03:18;94574.69;;;5.61;75.31
43711;BME280;29309;42.682;23.372;2023-04-03T04:05:43;94568.25;;;5.56;75.72
43711;BME280;29309;42.682;23.372;2023-04-03T04:08:09;94563.09;;;5.51;75.70
43711;BME280;29309;42.682;23.372;2023-04-03T04:10:35;94563.69;;;5.49;75.69
43711;BME280;29309;42.682;23.372;2023-04-03T04:13:02;94561.66;;;5.50;75.73
43711;BME280;29309;42.682;23.372;2023-04-03T04:15:27;94567.19;;;5.50;75.77
43711;BME280;29309;42.682;23.372;2023-04-03T04:17:53;94562.50;;;5.52;76.12
43711;BME280;29309;42.682;23.372;2023-04-03T04:20:18;94579.13;;;5.54;75.90
43711;BME280;29309;42.682;23.372;2023-04-03T04:22:44;94581.63;;;5.50;75.78
43711;BME280;29309;42.682;23.372;2023-04-03T04:25:09;94584.03;;;5.56;75.86
43711;BME280;29309;42.682;23.372;2023-04-03T04:27:35;94587.03;;;5.60;75.77
43711;BME280;29309;42.682;23.372;2023-04-03T04:30:03;94593.50;;;5.64;76.05
43711;BME280;29309;42.682;23.372;2023-04-03T04:32:28;94588.81;;;5.67;76.05
43711;BME280;29309;42.682;23.372;2023-04-03T04:34:54;94572.28;;;5.67;76.46
43711;BME280;29309;42.682;23.372;2023-04-03T04:37:20;94582.59;;;5.66;76.83
43711;BME280;29309;42.682;23.372;2023-04-03T04:39:45;94594.31;;;5.67;77.02
43711;BME280;29309;42.682;23.372;2023-04-03T04:42:10;94602.44;;;5.65;76.58
43711;BME280;29309;42.682;23.372;2023-04-03T04:44:38;94592.78;;;5.64;76.44
43711;BME280;29309;42.682;23.372;2023-04-03T04:47:04;94601.28;;;5.68;76.05
43711;BME280;29309;42.682;23.372;2023-04-03T04:49:30;94597.41;;;5.73;75.71
43711;BME280;29309;42.682;23.372;2023-04-03T04:51:55;94598.25;;;5.75;75.79
43711;BME280;29309;42.682;23.372;2023-04-03T04:54:21;94603.16;;;5.77;75.80
43711;BME280;29309;42.682;23.372;2023-04-03T04:56:46;94604.84;;;5.82;76.03
43711;BME280;29309;42.682;23.372;2023-04-03T04:59:12;94604.34;;;5.85;75.63
43711;BME280;29309;42.682;23.372;2023-04-03T05:01:38;94605.31;;;5.90;75.51
43711;BME280;29309;42.682;23.372;2023-04-03T05:04:03;94608.91;;;5.92;75.31
43711;BME280;29309;42.682;23.372;2023-04-03T05:06:29;94613.56;;;6.02;74.94
43711;BME280;29309;42.682;23.372;2023-04-03T05:08:57;94623.84;;;6.01;74.68
43711;BME280;29309;42.682;23.372;2023-04-03T05:11:22;94631.03;;;6.06;74.35
43711;BME280;29309;42.682;23.372;2023-04-03T05:13:48;94635.97;;;6.08;74.35
43711;BME280;29309;42.682;23.372;2023-04-03T05:16:13;94641.00;;;6.00;73.96
43711;BME280;29309;42.682;23.372;2023-04-03T05:18:39;94638.50;;;5.92;73.43
43711;BME280;29309;42.682;23.372;2023-04-03T05:21:04;94633.09;;;5.94;73.67
43711;BME280;29309;42.682;23.372;2023-04-03T05:23:30;94645.31;;;6.03;73.69
43711;BME280;29309;42.682;23.372;2023-04-03T05:25:55;94644.34;;;6.10;73.65
43711;BME280;29309;42.682;23.372;2023-04-03T05:28:21;94630.31;;;6.17;73.82
43711;BME280;29309;42.682;23.372;2023-04-03T05:30:53;94632.91;;;6.27;73.93
43711;BME280;29309;42.682;23.372;2023-04-03T05:33:19;94626.31;;;6.32;73.46
43711;BME280;29309;42.682;23.372;2023-04-03T05:35:45;94620.75;;;6.43;72.71
43711;BME280;29309;42.682;23.372;2023-04-03T05:38:10;94628.47;;;6.59;73.25
43711;BME280;29309;42.682;23.372;2023-04-03T05:40:36;94624.94;;;6.70;72.81
43711;BME280;29309;42.682;23.372;2023-04-03T05:43:02;94628.28;;;6.80;72.35
43711;BME280;29309;42.682;23.372;2023-04-03T05:45:28;94626.56;;;6.86;72.23
43711;BME280;29309;42.682;23.372;2023-04-03T05:47:53;94630.66;;;6.99;71.75
43711;BME280;29309;42.682;23.372;2023-04-03T05:50:19;94626.41;;;7.10;71.80
43711;BME280;29309;42.682;23.372;2023-04-03T05:52:47;94618.75;;;7.08;73.00
43711;BME280;29309;42.682;23.372;2023-04-03T05:55:14;94626.34;;;7.21;72.02
43711;BME280;29309;42.682;23.372;2023-04-03T05:57:40;94625.00;;;7.22;71.84
43711;BME280;29309;42.682;23.372;2023-04-03T06:00:07;94617.25;;;7.32;70.65
43711;BME280;29309;42.682;23.372;2023-04-03T06:02:35;94620.09;;;7.34;70.95
43711;BME280;29309;42.682;23.372;2023-04-03T06:05:01;94618.72;;;7.47;70.11
43711;BME280;29309;42.682;23.372;2023-04-03T06:07:27;94622.50;;;7.54;70.86
43711;BME280;29309;42.682;23.372;2023-04-03T06:09:54;94610.53;;;7.63;70.10
43711;BME280;29309;42.682;23.372;2023-04-03T06:12:21;94609.53;;;7.70;68.83
43711;BME280;29309;42.682;23.372;2023-04-03T06:14:47;94611.88;;;7.75;69.69
43711;BME280;29309;42.682;23.372;2023-04-03T06:17:14;94606.13;;;7.85;69.23
43711;BME280;29309;42.682;23.372;2023-04-03T06:19:40;94605.00;;;7.90;69.34
43711;BME280;29309;42.682;23.372;2023-04-03T06:22:06;94601.84;;;7.96;69.76
43711;BME280;29309;42.682;23.372;2023-04-03T06:24:32;94593.72;;;8.00;69.86
43711;BME280;29309;42.682;23.372;2023-04-03T06:26:57;94604.66;;;8.11;68.89
43711;BME280;29309;42.682;23.372;2023-04-03T06:29:23;94610.59;;;8.19;68.74
43711;BME280;29309;42.682;23.372;2023-04-03T06:31:50;94609.66;;;8.28;68.51
43711;BME280;29309;42.682;23.372;2023-04-03T06:34:15;94612.03;;;8.34;66.85
43711;BME280;29309;42.682;23.372;2023-04-03T06:36:42;94624.28;;;8.45;67.49
43711;BME280;29309;42.682;23.372;2023-04-03T06:39:13;94627.44;;;8.53;66.36
43711;BME280;29309;42.682;23.372;2023-04-03T06:41:39;94633.91;;;8.57;65.89
43711;BME280;29309;42.682;23.372;2023-04-03T06:44:05;94635.97;;;8.43;65.22
43711;BME280;29309;42.682;23.372;2023-04-03T06:46:30;94627.59;;;8.27;65.79
43711;BME280;29309;42.682;23.372;2023-04-03T06:48:56;94615.94;;;8.15;67.50
43711;BME280;29309;42.682;23.372;2023-04-03T06:51:26;94617.56;;;8.20;68.21
43711;BME280;29309;42.682;23.372;2023-04-03T06:53:54;94611.72;;;8.28;69.04
43711;BME280;29309;42.682;23.372;2023-04-03T06:56:20;94623.91;;;8.36;67.51
43711;BME280;29309;42.682;23.372;2023-04-03T06:58:46;94628.50;;;8.46;67.22
43711;BME280;29309;42.682;23.372;2023-04-03T07:01:13;94630.22;;;8.53;68.11
43711;BME280;29309;42.682;23.372;2023-04-03T07:03:39;94630.41;;;8.57;66.95
43711;BME280;29309;42.682;23.372;2023-04-03T07:06:05;94615.34;;;8.60;67.17
43711;BME280;29309;42.682;23.372;2023-04-03T07:08:33;94617.88;;;8.69;66.73
43711;BME280;29309;42.682;23.372;2023-04-03T07:10:58;94617.25;;;8.71;65.93
43711;BME280;29309;42.682;23.372;2023-04-03T07:13:24;94617.44;;;8.75;67.13
43711;BME280;29309;42.682;23.372;2023-04-03T07:15:49;94613.72;;;8.84;66.25
43711;BME280;29309;42.682;23.372;2023-04-03T07:18:15;94619.44;;;8.88;65.82
43711;BME280;29309;42.682;23.372;2023-04-03T07:20:42;94593.66;;;8.99;65.74
43711;BME280;29309;42.682;23.372;2023-04-03T07:23:08;94594.91;;;9.12;65.29
43711;BME280;29309;42.682;23.372;2023-04-03T07:25:33;94600.38;;;9.25;64.73
43711;BME280;29309;42.682;23.372;2023-04-03T07:27:59;94600.91;;;9.37;64.19
43711;BME280;29309;42.682;23.372;2023-04-03T07:30:24;94595.38;;;9.37;64.36
43711;BME280;29309;42.682;23.372;2023-04-03T07:32:50;94602.16;;;9.50;63.38
43711;BME280;29309;42.682;23.372;2023-04-03T07:35:16;94607.53;;;9.62;63.93
43711;BME280;29309;42.682;23.372;2023-04-03T07:37:42;94595.44;;;9.71;63.31
43711;BME280;29309;42.682;23.372;2023-04-03T07:40:08;94607.69;;;9.81;63.57
43711;BME280;29309;42.682;23.372;2023-04-03T07:42:34;94597.13;;;9.78;62.85
43711;BME280;29309;42.682;23.372;2023-04-03T07:45:00;94596.69;;;9.68;62.81
43711;BME280;29309;42.682;23.372;2023-04-03T07:47:27;94596.16;;;9.71;62.94
43711;BME280;29309;42.682;23.372;2023-04-03T07:49:52;94585.78;;;9.72;62.85
43711;BME280;29309;42.682;23.372;2023-04-03T07:52:18;94572.38;;;9.66;63.17
43711;BME280;29309;42.682;23.372;2023-04-03T07:54:43;94575.50;;;9.74;63.61
43711;BME280;29309;42.682;23.372;2023-04-03T07:57:08;94572.28;;;9.80;62.91
43711;BME280;29309;42.682;23.372;2023-04-03T07:59:34;94574.03;;;9.89;62.77
43711;BME280;29309;42.682;23.372;2023-04-03T08:02:00;94578.75;;;10.02;62.95
43711;BME280;29309;42.682;23.372;2023-04-03T08:04:26;94575.88;;;10.16;63.45
43711;BME280;29309;42.682;23.372;2023-04-03T08:06:52;94581.28;;;10.29;64.42
43711;BME280;29309;42.682;23.372;2023-04-03T08:09:18;94578.84;;;10.38;62.27
43711;BME280;29309;42.682;23.372;2023-04-03T08:11:44;94581.38;;;10.49;61.64
43711;BME280;29309;42.682;23.372;2023-04-03T08:14:10;94569.81;;;10.55;62.28
43711;BME280;29309;42.682;23.372;2023-04-03T08:16:41;94556.81;;;10.59;61.25
43711;BME280;29309;42.682;23.372;2023-04-03T08:19:07;94570.38;;;10.69;60.91
43711;BME280;29309;42.682;23.372;2023-04-03T08:21:33;94564.75;;;10.67;59.44
43711;BME280;29309;42.682;23.372;2023-04-03T08:23:58;94560.69;;;10.70;60.33
43711;BME280;29309;42.682;23.372;2023-04-03T08:26:23;94562.19;;;10.55;60.57
43711;BME280;29309;42.682;23.372;2023-04-03T08:28:51;94555.06;;;10.50;61.11
43711;BME280;29309;42.682;23.372;2023-04-03T08:31:18;94564.31;;;10.57;61.69
43711;BME280;29309;42.682;23.372;2023-04-03T08:33:45;94569.03;;;10.52;60.83
43711;BME280;29309;42.682;23.372;2023-04-03T08:36:24;94564.72;;;10.31;60.67
43711;BME280;29309;42.682;23.372;2023-04-03T08:38:55;94557.72;;;10.13;62.48
43711;BME280;29309;42.682;23.372;2023-04-03T08:46:42;94545.06;;;10.43;60.87
43711;BME280;29309;42.682;23.372;2023-04-03T08:49:25;94541.84;;;10.49;61.32
43711;BME280;29309;42.682;23.372;2023-04-03T08:51:52;94539.84;;;10.51;60.54
43711;BME280;29309;42.682;23.372;2023-04-03T08:54:30;94540.72;;;10.56;60.46
43711;BME280;29309;42.682;23.372;2023-04-03T08:57:00;94531.19;;;10.61;61.06
43711;BME280;29309;42.682;23.372;2023-04-03T08:59:29;94533.22;;;10.78;60.80
43711;BME280;29309;42.682;23.372;2023-04-03T09:01:59;94535.34;;;10.97;60.63
43711;BME280;29309;42.682;23.372;2023-04-03T09:04:30;94527.38;;;11.07;59.69
43711;BME280;29309;42.682;23.372;2023-04-03T09:07:03;94523.97;;;11.09;59.16
43711;BME280;29309;42.682;23.372;2023-04-03T09:09:37;94520.69;;;11.14;59.21
43711;BME280;29309;42.682;23.372;2023-04-03T09:12:24;94514.97;;;11.28;59.57
43711;BME280;29309;42.682;23.372;2023-04-03T09:18:05;94506.56;;;11.46;58.18
43711;BME280;29309;42.682;23.372;2023-04-03T09:23:30;94502.53;;;11.51;57.58
43711;BME280;29309;42.682;23.372;2023-04-03T09:26:05;94501.28;;;11.54;57.83
43711;BME280;29309;42.682;23.372;2023-04-03T09:28:38;94498.00;;;11.59;57.87
43711;BME280;29309;42.682;23.372;2023-04-03T09:31:19;94498.84;;;11.64;57.31
43711;BME280;29309;42.682;23.372;2023-04-03T09:33:46;94491.91;;;11.65;57.51
43711;BME280;29309;42.682;23.372;2023-04-03T09:36:13;94494.38;;;11.74;57.13
43711;BME280;29309;42.682;23.372;2023-04-03T09:38:38;94486.88;;;11.79;58.53
43711;BME280;29309;42.682;23.372;2023-04-03T09:41:14;94493.34;;;11.86;57.34
43711;BME280;29309;42.682;23.372;2023-04-03T09:43:52;94490.63;;;11.88;57.10
43711;BME280;29309;42.682;23.372;2023-04-03T09:46:31;94489.41;;;11.93;57.01
43711;BME280;29309;42.682;23.372;2023-04-03T09:48:59;94485.28;;;11.94;56.79
43711;BME280;29309;42.682;23.372;2023-04-03T09:51:27;94481.91;;;11.97;56.40
43711;BME280;29309;42.682;23.372;2023-04-03T09:53:53;94486.09;;;11.98;56.45
43711;BME280;29309;42.682;23.372;2023-04-03T10:01:32;94475.88;;;11.83;56.98
43711;BME280;29309;42.682;23.372;2023-04-03T10:04:12;94474.59;;;11.86;57.12
43711;BME280;29309;42.682;23.372;2023-04-03T10:06:41;94468.91;;;11.82;57.58
43711;BME280;29309;42.682;23.372;2023-04-03T10:09:29;94472.44;;;11.84;57.68
43711;BME280;29309;42.682;23.372;2023-04-03T10:12:10;94472.31;;;11.80;58.51
43711;BME280;29309;42.682;23.372;2023-04-03T10:14:54;94472.59;;;11.69;59.63
43711;BME280;29309;42.682;23.372;2023-04-03T10:25:13;94459.91;;;11.64;61.50
43711;BME280;29309;42.682;23.372;2023-04-03T10:27:48;94451.72;;;11.68;60.07
43711;BME280;29309;42.682;23.372;2023-04-03T10:30:42;94449.56;;;11.66;59.58
43711;BME280;29309;42.682;23.372;2023-04-03T10:36:09;94437.88;;;11.70;58.83
43711;BME280;29309;42.682;23.372;2023-04-03T10:53:27;94427.84;;;11.61;59.05
43711;BME280;29309;42.682;23.372;2023-04-03T10:55:35;94420.16;;;11.59;59.08
43711;BME280;29309;42.682;23.372;2023-04-03T10:58:03;94426.44;;;11.60;57.85
43711;BME280;29309;42.682;23.372;2023-04-03T11:00:43;94434.69;;;11.58;57.88
43711;BME280;29309;42.682;23.372;2023-04-03T11:03:15;94429.00;;;11.54;57.86
43711;BME280;29309;42.682;23.372;2023-04-03T11:05:47;94430.34;;;11.53;57.52
43711;BME280;29309;42.682;23.372;2023-04-03T11:08:22;94434.63;;;11.56;58.71
43711;BME280;29309;42.682;23.372;2023-04-03T11:10:54;94436.63;;;11.53;60.05
43711;BME280;29309;42.682;23.372;2023-04-03T11:13:33;94444.25;;;11.53;59.96
43711;BME280;29309;42.682;23.372;2023-04-03T11:16:00;94453.88;;;11.50;60.28
43711;BME280;29309;42.682;23.372;2023-04-03T11:18:32;94443.06;;;11.38;60.84
43711;BME280;29309;42.682;23.372;2023-04-03T11:21:12;94446.91;;;11.29;61.51
43711;BME280;29309;42.682;23.372;2023-04-03T11:23:41;94440.13;;;11.14;63.03
43711;BME280;29309;42.682;23.372;2023-04-03T11:26:12;94435.59;;;11.03;63.58
43711;BME280;29309;42.682;23.372;2023-04-03T11:28:38;94424.50;;;11.03;64.70
43711;BME280;29309;42.682;23.372;2023-04-03T11:36:49;94431.88;;;10.77;69.36
43711;BME280;29309;42.682;23.372;2023-04-03T11:41:52;94423.03;;;10.63;70.32
43711;BME280;29309;42.682;23.372;2023-04-03T11:44:36;94434.75;;;10.61;72.43
43711;BME280;29309;42.682;23.372;2023-04-03T11:47:04;94429.72;;;10.56;72.93
43711;BME280;29309;42.682;23.372;2023-04-03T12:16:07;94435.25;;;9.85;81.44
43711;BME280;29309;42.682;23.372;2023-04-03T12:29:23;94436.72;;;9.53;85.82
43711;BME280;29309;42.682;23.372;2023-04-03T12:48:26;94395.47;;;9.10;93.13
43711;BME280;29309;42.682;23.372;2023-04-03T12:50:54;94384.22;;;9.06;93.09
43711;BME280;29309;42.682;23.372;2023-04-03T12:53:29;94384.31;;;9.08;93.72
43711;BME280;29309;42.682;23.372;2023-04-03T12:56:22;94387.53;;;9.02;94.32
43711;BME280;29309;42.682;23.372;2023-04-03T12:58:50;94381.81;;;8.98;94.46
43711;BME280;29309;42.682;23.372;2023-04-03T13:01:18;94395.50;;;8.94;94.89
43711;BME280;29309;42.682;23.372;2023-04-03T13:03:48;94389.63;;;8.86;95.10
43711;BME280;29309;42.682;23.372;2023-04-03T13:06:28;94397.13;;;8.83;95.44
43711;BME280;29309;42.682;23.372;2023-04-03T13:08:57;94392.03;;;8.78;96.33
43711;BME280;29309;42.682;23.372;2023-04-03T13:11:26;94397.41;;;8.74;96.95
43711;BME280;29309;42.682;23.372;2023-04-03T13:13:54;94386.78;;;8.68;97.42
43711;BME280;29309;42.682;23.372;2023-04-03T13:16:20;94390.91;;;8.67;98.03
43711;BME280;29309;42.682;23.372;2023-04-03T13:18:51;94385.97;;;8.66;98.73
43711;BME280;29309;42.682;23.372;2023-04-03T13:21:20;94378.94;;;8.63;99.05
43711;BME280;29309;42.682;23.372;2023-04-03T13:23:49;94385.00;;;8.59;99.90
43711;BME280;29309;42.682;23.372;2023-04-03T13:26:17;94384.94;;;8.57;100.00
43711;BME280;29309;42.682;23.372;2023-04-03T13:28:44;94388.19;;;8.54;100.00
43711;BME280;29309;42.682;23.372;2023-04-03T13:34:03;94371.81;;;8.42;100.00
43711;BME280;29309;42.682;23.372;2023-04-03T13:36:33;94375.09;;;8.38;100.00
43711;BME280;29309;42.682;23.372;2023-04-03T13:39:02;94366.72;;;8.36;100.00
43711;BME280;29309;42.682;23.372;2023-04-03T13:46:54;94373.53;;;8.20;100.00
43711;BME280;29309;42.682;23.372;2023-04-03T13:49:27;94369.28;;;8.17;100.00
43711;BME280;29309;42.682;23.372;2023-04-03T13:51:54;94369.09;;;8.13;100.00
43711;BME280;29309;42.682;23.372;2023-04-03T13:54:29;94360.06;;;8.12;100.00
43711;BME280;29309;42.682;23.372;2023-04-03T13:56:57;94358.75;;;8.13;100.00
43711;BME280;29309;42.682;23.372;2023-04-03T13:59:33;94360.88;;;8.15;100.00
43711;BME280;29309;42.682;23.372;2023-04-03T14:04:30;94362.22;;;8.14;100.00
43711;BME280;29309;42.682;23.372;2023-04-03T14:06:57;94360.06;;;8.12;100.00
43711;BME280;29309;42.682;23.372;2023-04-03T14:09:25;94352.38;;;8.11;100.00
43711;BME280;29309;42.682;23.372;2023-04-03T14:11:54;94349.09;;;8.14;100.00
43711;BME280;29309;42.682;23.372;2023-04-03T14:14:24;94346.97;;;8.13;100.00
43711;BME280;29309;42.682;23.372;2023-04-03T14:16:55;94353.03;;;8.09;100.00
43711;BME280;29309;42.682;23.372;2023-04-03T14:19:24;94343.84;;;8.05;100.00
43711;BME280;29309;42.682;23.372;2023-04-03T14:21:51;94341.78;;;8.05;100.00
43711;BME280;29309;42.682;23.372;2023-04-03T14:24:19;94340.53;;;8.08;100.00
43711;BME280;29309;42.682;23.372;2023-04-03T14:26:45;94342.69;;;8.10;100.00
43711;BME280;29309;42.682;23.372;2023-04-03T14:29:12;94341.16;;;8.07;100.00
43711;BME280;29309;42.682;23.372;2023-04-03T14:31:39;94340.16;;;8.00;100.00
43711;BME280;29309;42.682;23.372;2023-04-03T14:34:05;94341.59;;;8.01;100.00
43711;BME280;29309;42.682;23.372;2023-04-03T14:36:32;94337.50;;;8.02;100.00
43711;BME280;29309;42.682;23.372;2023-04-03T14:38:59;94332.59;;;8.01;100.00
43711;BME280;29309;42.682;23.372;2023-04-03T14:41:25;94341.59;;;8.01;100.00
43711;BME280;29309;42.682;23.372;2023-04-03T14:43:52;94341.53;;;7.99;100.00
43711;BME280;29309;42.682;23.372;2023-04-03T14:46:21;94335.28;;;7.99;100.00
43711;BME280;29309;42.682;23.372;2023-04-03T14:48:48;94333.84;;;7.98;100.00
43711;BME280;29309;42.682;23.372;2023-04-03T14:51:15;94328.22;;;7.96;100.00
43711;BME280;29309;42.682;23.372;2023-04-03T14:53:42;94333.22;;;7.99;100.00
43711;BME280;29309;42.682;23.372;2023-04-03T14:56:26;94326.44;;;8.02;100.00
43711;BME280;29309;42.682;23.372;2023-04-03T14:59:02;94319.94;;;7.96;100.00
43711;BME280;29309;42.682;23.372;2023-04-03T15:01:28;94316.88;;;7.89;100.00